sensor_id;sensor_type;location;lat;lon;timestamp;pressure;altitude;pressure_sealevel;temperature;humidity
47811;BME280;33575;52.600;7.318;2023-06-22T00:01:53;101783.72;;;22.08;81.34
47811;BME280;33575;52.600;7.318;2023-06-22T00:04:23;101790.21;;;22.06;81.80
47811;BME280;33575;52.600;7.318;2023-06-22T00:06:54;101793.56;;;21.99;80.98
47811;BME280;33575;52.600;7.318;2023-06-22T00:09:24;101792.01;;;21.95;81.23
47811;BME280;33575;52.600;7.318;2023-06-22T00:11:55;101793.58;;;21.92;81.84
47811;BME280;33575;52.600;7.318;2023-06-22T00:14:25;101794.77;;;21.87;81.67
47811;BME280;33575;52.600;7.318;2023-06-22T00:16:56;101790.06;;;21.86;81.18
47811;BME280;33575;52.600;7.318;2023-06-22T00:19:26;101790.38;;;21.85;81.22
47811;BME280;33575;52.600;7.318;2023-06-22T00:21:57;101788.75;;;21.84;81.13
47811;BME280;33575;52.600;7.318;2023-06-22T00:24:28;101789.63;;;21.82;81.22
47811;BME280;33575;52.600;7.318;2023-06-22T00:26:58;101785.35;;;21.82;81.04
47811;BME280;33575;52.600;7.318;2023-06-22T00:29:29;101782.71;;;21.82;80.95
47811;BME280;33575;52.600;7.318;2023-06-22T00:31:59;101777.37;;;21.82;81.42
47811;BME280;33575;52.600;7.318;2023-06-22T00:34:30;101772.48;;;21.76;81.99
47811;BME280;33575;52.600;7.318;2023-06-22T00:37:01;101772.47;;;21.68;82.81
47811;BME280;33575;52.600;7.318;2023-06-22T00:39:31;101771.52;;;21.58;83.11
47811;BME280;33575;52.600;7.318;2023-06-22T00:42:02;101768.24;;;21.47;83.73
47811;BME280;33575;52.600;7.318;2023-06-22T00:44:32;101763.64;;;21.34;84.38
47811;BME280;33575;52.600;7.318;2023-06-22T00:47:03;101759.40;;;21.20;85.17
47811;BME280;33575;52.600;7.318;2023-06-22T00:49:32;101751.78;;;21.13;84.93
47811;BME280;33575;52.600;7.318;2023-06-22T00:52:03;101753.40;;;21.10;84.65
47811;BME280;33575;52.600;7.318;2023-06-22T00:54:33;101757.34;;;21.11;84.57
47811;BME280;33575;52.600;7.318;2023-06-22T00:57:04;101762.03;;;21.09;85.18
47811;BME280;33575;52.600;7.318;2023-06-22T00:59:34;101754.90;;;21.02;85.11
47811;BME280;33575;52.600;7.318;2023-06-22T01:02:04;101750.68;;;20.92;85.55
47811;BME280;33575;52.600;7.318;2023-06-22T01:04:36;101748.87;;;20.84;85.77
47811;BME280;33575;52.600;7.318;2023-06-22T01:07:13;101746.99;;;20.80;85.65
47811;BME280;33575;52.600;7.318;2023-06-22T01:09:40;101745.66;;;20.78;85.41
47811;BME280;33575;52.600;7.318;2023-06-22T01:12:07;101741.19;;;20.77;85.44
47811;BME280;33575;52.600;7.318;2023-06-22T01:14:41;101730.57;;;20.74;85.43
47811;BME280;33575;52.600;7.318;2023-06-22T01:17:08;101723.32;;;20.66;86.35
47811;BME280;33575;52.600;7.318;2023-06-22T01:19:42;101727.49;;;20.55;87.02
47811;BME280;33575;52.600;7.318;2023-06-22T01:22:08;101740.04;;;20.55;86.25
47811;BME280;33575;52.600;7.318;2023-06-22T01:24:44;101745.86;;;20.63;85.51
47811;BME280;33575;52.600;7.318;2023-06-22T01:27:22;101739.89;;;20.66;86.22
47811;BME280;33575;52.600;7.318;2023-06-22T01:29:39;101736.39;;;20.60;86.02
47811;BME280;33575;52.600;7.318;2023-06-22T01:32:11;101735.55;;;20.58;86.07
47811;BME280;33575;52.600;7.318;2023-06-22T01:34:40;101737.42;;;20.59;85.87
47811;BME280;33575;52.600;7.318;2023-06-22T01:37:12;101740.12;;;20.64;85.31
47811;BME280;33575;52.600;7.318;2023-06-22T01:39:41;101739.85;;;20.69;85.22
47811;BME280;33575;52.600;7.318;2023-06-22T01:42:11;101736.24;;;20.68;85.42
47811;BME280;33575;52.600;7.318;2023-06-22T01:44:41;101740.65;;;20.68;85.26
47811;BME280;33575;52.600;7.318;2023-06-22T01:47:12;101741.60;;;20.69;85.37
47811;BME280;33575;52.600;7.318;2023-06-22T01:49:43;101742.91;;;20.72;84.96
47811;BME280;33575;52.600;7.318;2023-06-22T01:52:14;101744.58;;;20.74;84.89
47811;BME280;33575;52.600;7.318;2023-06-22T01:54:44;101747.65;;;20.74;85.03
47811;BME280;33575;52.600;7.318;2023-06-22T01:57:15;101748.60;;;20.71;85.29
47811;BME280;33575;52.600;7.318;2023-06-22T01:59:49;101745.51;;;20.63;85.71
47811;BME280;33575;52.600;7.318;2023-06-22T02:02:20;101743.25;;;20.57;85.73
47811;BME280;33575;52.600;7.318;2023-06-22T02:04:51;101740.94;;;20.51;86.24
47811;BME280;33575;52.600;7.318;2023-06-22T02:07:19;101738.79;;;20.45;86.24
47811;BME280;33575;52.600;7.318;2023-06-22T02:09:49;101735.23;;;20.38;86.56
47811;BME280;33575;52.600;7.318;2023-06-22T02:12:21;101734.35;;;20.30;87.02
47811;BME280;33575;52.600;7.318;2023-06-22T02:14:48;101737.45;;;20.19;87.17
47811;BME280;33575;52.600;7.318;2023-06-22T02:17:19;101734.47;;;20.02;88.04
47811;BME280;33575;52.600;7.318;2023-06-22T02:19:49;101737.15;;;19.94;88.35
47811;BME280;33575;52.600;7.318;2023-06-22T02:22:19;101737.31;;;19.85;88.81
47811;BME280;33575;52.600;7.318;2023-06-22T02:24:50;101734.96;;;19.82;88.85
47811;BME280;33575;52.600;7.318;2023-06-22T02:27:20;101734.38;;;19.81;88.98
47811;BME280;33575;52.600;7.318;2023-06-22T02:29:50;101730.93;;;19.81;88.64
47811;BME280;33575;52.600;7.318;2023-06-22T02:32:21;101728.52;;;19.84;88.48
47811;BME280;33575;52.600;7.318;2023-06-22T02:34:52;101729.98;;;19.82;89.03
47811;BME280;33575;52.600;7.318;2023-06-22T02:37:22;101733.06;;;19.81;88.61
47811;BME280;33575;52.600;7.318;2023-06-22T02:39:52;101731.67;;;19.83;88.36
47811;BME280;33575;52.600;7.318;2023-06-22T02:42:22;101733.94;;;19.83;88.41
47811;BME280;33575;52.600;7.318;2023-06-22T02:44:53;101737.86;;;19.83;88.45
47811;BME280;33575;52.600;7.318;2023-06-22T02:47:23;101738.91;;;19.83;88.70
47811;BME280;33575;52.600;7.318;2023-06-22T02:49:54;101733.05;;;19.81;88.59
47811;BME280;33575;52.600;7.318;2023-06-22T02:52:24;101738.45;;;19.81;88.40
47811;BME280;33575;52.600;7.318;2023-06-22T02:54:55;101743.64;;;19.85;87.75
47811;BME280;33575;52.600;7.318;2023-06-22T02:57:25;101747.05;;;19.91;87.56
47811;BME280;33575;52.600;7.318;2023-06-22T02:59:56;101747.94;;;19.96;87.63
47811;BME280;33575;52.600;7.318;2023-06-22T03:02:26;101750.30;;;19.93;87.89
47811;BME280;33575;52.600;7.318;2023-06-22T03:04:56;101746.67;;;19.90;87.91
47811;BME280;33575;52.600;7.318;2023-06-22T03:07:28;101745.03;;;19.74;88.72
47811;BME280;33575;52.600;7.318;2023-06-22T03:09:57;101742.71;;;19.68;88.55
47811;BME280;33575;52.600;7.318;2023-06-22T03:12:27;101740.18;;;19.64;88.60
47811;BME280;33575;52.600;7.318;2023-06-22T03:14:57;101740.47;;;19.62;88.72
47811;BME280;33575;52.600;7.318;2023-06-22T03:17:28;101743.71;;;19.59;88.92
47811;BME280;33575;52.600;7.318;2023-06-22T03:19:58;101747.87;;;19.61;88.66
47811;BME280;33575;52.600;7.318;2023-06-22T03:22:29;101746.13;;;19.57;89.26
47811;BME280;33575;52.600;7.318;2023-06-22T03:24:59;101744.98;;;19.59;88.76
47811;BME280;33575;52.600;7.318;2023-06-22T03:27:30;101747.55;;;19.60;89.08
47811;BME280;33575;52.600;7.318;2023-06-22T03:30:00;101745.32;;;19.63;88.79
47811;BME280;33575;52.600;7.318;2023-06-22T03:32:30;101746.47;;;19.60;88.88
47811;BME280;33575;52.600;7.318;2023-06-22T03:35:01;101748.63;;;19.55;89.12
47811;BME280;33575;52.600;7.318;2023-06-22T03:37:31;101752.09;;;19.48;89.47
47811;BME280;33575;52.600;7.318;2023-06-22T03:40:01;101752.77;;;19.40;89.76
47811;BME280;33575;52.600;7.318;2023-06-22T03:42:33;101752.63;;;19.36;89.90
47811;BME280;33575;52.600;7.318;2023-06-22T03:45:02;101751.32;;;19.26;90.79
47811;BME280;33575;52.600;7.318;2023-06-22T03:47:33;101747.27;;;19.27;90.23
47811;BME280;33575;52.600;7.318;2023-06-22T03:50:03;101743.64;;;19.25;90.36
47811;BME280;33575;52.600;7.318;2023-06-22T03:52:33;101743.79;;;19.28;90.36
47811;BME280;33575;52.600;7.318;2023-06-22T03:55:04;101746.22;;;19.36;89.76
47811;BME280;33575;52.600;7.318;2023-06-22T03:57:34;101741.35;;;19.41;89.55
47811;BME280;33575;52.600;7.318;2023-06-22T04:00:06;101739.52;;;19.46;89.39
47811;BME280;33575;52.600;7.318;2023-06-22T04:02:35;101738.78;;;19.49;89.27
47811;BME280;33575;52.600;7.318;2023-06-22T04:05:08;101736.85;;;19.48;89.27
47811;BME280;33575;52.600;7.318;2023-06-22T04:07:36;101737.36;;;19.49;89.14
47811;BME280;33575;52.600;7.318;2023-06-22T04:10:07;101739.31;;;19.54;89.22
47811;BME280;33575;52.600;7.318;2023-06-22T04:12:38;101744.63;;;19.59;88.86
47811;BME280;33575;52.600;7.318;2023-06-22T04:15:09;101744.27;;;19.63;88.95
47811;BME280;33575;52.600;7.318;2023-06-22T04:17:39;101742.97;;;19.64;88.95
47811;BME280;33575;52.600;7.318;2023-06-22T04:20:09;101741.44;;;19.61;89.25
47811;BME280;33575;52.600;7.318;2023-06-22T04:22:40;101738.05;;;19.61;89.06
47811;BME280;33575;52.600;7.318;2023-06-22T04:25:10;101736.15;;;19.61;89.21
47811;BME280;33575;52.600;7.318;2023-06-22T04:27:40;101733.87;;;19.63;88.89
47811;BME280;33575;52.600;7.318;2023-06-22T04:30:12;101736.21;;;19.62;89.04
47811;BME280;33575;52.600;7.318;2023-06-22T04:32:42;101736.43;;;19.63;88.78
47811;BME280;33575;52.600;7.318;2023-06-22T04:35:12;101738.71;;;19.65;88.89
47811;BME280;33575;52.600;7.318;2023-06-22T04:37:43;101739.71;;;19.64;89.06
47811;BME280;33575;52.600;7.318;2023-06-22T04:40:13;101740.56;;;19.66;88.76
47811;BME280;33575;52.600;7.318;2023-06-22T04:42:43;101739.94;;;19.57;89.06
47811;BME280;33575;52.600;7.318;2023-06-22T04:45:14;101738.99;;;19.56;88.95
47811;BME280;33575;52.600;7.318;2023-06-22T04:47:44;101742.79;;;19.54;89.07
47811;BME280;33575;52.600;7.318;2023-06-22T04:50:15;101739.76;;;19.53;89.22
47811;BME280;33575;52.600;7.318;2023-06-22T04:52:45;101736.82;;;19.53;89.30
47811;BME280;33575;52.600;7.318;2023-06-22T04:55:17;101733.13;;;19.53;89.22
47811;BME280;33575;52.600;7.318;2023-06-22T04:57:47;101728.74;;;19.56;89.18
47811;BME280;33575;52.600;7.318;2023-06-22T05:00:18;101728.84;;;19.56;89.19
47811;BME280;33575;52.600;7.318;2023-06-22T05:02:47;101725.15;;;19.56;89.15
47811;BME280;33575;52.600;7.318;2023-06-22T05:05:17;101721.49;;;19.48;89.43
47811;BME280;33575;52.600;7.318;2023-06-22T05:07:50;101721.15;;;19.41;89.68
47811;BME280;33575;52.600;7.318;2023-06-22T05:10:19;101716.43;;;19.33;90.09
47811;BME280;33575;52.600;7.318;2023-06-22T05:12:48;101714.22;;;19.31;89.89
47811;BME280;33575;52.600;7.318;2023-06-22T05:15:19;101719.11;;;19.27;90.72
47811;BME280;33575;52.600;7.318;2023-06-22T05:17:50;101720.35;;;19.25;90.49
47811;BME280;33575;52.600;7.318;2023-06-22T05:20:21;101716.65;;;19.26;90.43
47811;BME280;33575;52.600;7.318;2023-06-22T05:22:51;101718.02;;;19.31;90.07
47811;BME280;33575;52.600;7.318;2023-06-22T05:25:21;101715.28;;;19.37;90.24
47811;BME280;33575;52.600;7.318;2023-06-22T05:27:52;101710.80;;;19.30;90.75
47811;BME280;33575;52.600;7.318;2023-06-22T05:30:23;101711.38;;;19.33;90.64
47811;BME280;33575;52.600;7.318;2023-06-22T05:32:52;101713.07;;;19.28;91.35
47811;BME280;33575;52.600;7.318;2023-06-22T05:35:23;101716.08;;;19.29;91.45
47811;BME280;33575;52.600;7.318;2023-06-22T05:37:53;101718.23;;;19.34;91.01
47811;BME280;33575;52.600;7.318;2023-06-22T05:40:24;101718.76;;;19.35;91.09
47811;BME280;33575;52.600;7.318;2023-06-22T05:42:54;101722.16;;;19.40;90.95
47811;BME280;33575;52.600;7.318;2023-06-22T05:45:24;101725.26;;;19.47;91.04
47811;BME280;33575;52.600;7.318;2023-06-22T05:47:55;101728.56;;;19.48;91.58
47811;BME280;33575;52.600;7.318;2023-06-22T05:50:26;101724.78;;;19.58;90.89
47811;BME280;33575;52.600;7.318;2023-06-22T05:52:56;101723.70;;;19.65;90.59
47811;BME280;33575;52.600;7.318;2023-06-22T05:55:26;101720.59;;;19.72;90.38
47811;BME280;33575;52.600;7.318;2023-06-22T05:57:57;101717.89;;;19.74;90.16
47811;BME280;33575;52.600;7.318;2023-06-22T06:00:28;101711.82;;;19.76;90.22
47811;BME280;33575;52.600;7.318;2023-06-22T06:02:58;101715.21;;;19.85;90.21
47811;BME280;33575;52.600;7.318;2023-06-22T06:05:28;101717.55;;;19.92;90.04
47811;BME280;33575;52.600;7.318;2023-06-22T06:07:59;101716.62;;;20.03;89.82
47811;BME280;33575;52.600;7.318;2023-06-22T06:10:30;101719.25;;;20.08;89.70
47811;BME280;33575;52.600;7.318;2023-06-22T06:13:00;101723.70;;;20.14;89.07
47811;BME280;33575;52.600;7.318;2023-06-22T06:15:30;101724.23;;;20.28;88.88
47811;BME280;33575;52.600;7.318;2023-06-22T06:18:01;101723.20;;;20.41;88.49
47811;BME280;33575;52.600;7.318;2023-06-22T06:20:32;101726.18;;;20.50;88.51
47811;BME280;33575;52.600;7.318;2023-06-22T06:23:02;101722.68;;;20.63;87.92
47811;BME280;33575;52.600;7.318;2023-06-22T06:25:32;101719.73;;;20.70;87.32
47811;BME280;33575;52.600;7.318;2023-06-22T06:28:02;101720.35;;;20.81;86.84
47811;BME280;33575;52.600;7.318;2023-06-22T06:30:33;101717.35;;;20.87;86.36
47811;BME280;33575;52.600;7.318;2023-06-22T06:33:03;101723.48;;;20.94;86.51
47811;BME280;33575;52.600;7.318;2023-06-22T06:35:34;101725.71;;;21.02;85.90
47811;BME280;33575;52.600;7.318;2023-06-22T06:38:04;101721.50;;;21.04;85.03
47811;BME280;33575;52.600;7.318;2023-06-22T06:40:35;101720.80;;;21.06;84.91
47811;BME280;33575;52.600;7.318;2023-06-22T06:43:05;101718.46;;;21.04;83.52
47811;BME280;33575;52.600;7.318;2023-06-22T06:45:35;101716.48;;;21.02;84.09
47811;BME280;33575;52.600;7.318;2023-06-22T06:48:06;101716.24;;;20.97;83.36
47811;BME280;33575;52.600;7.318;2023-06-22T06:50:36;101713.34;;;21.05;83.25
47811;BME280;33575;52.600;7.318;2023-06-22T06:53:06;101712.24;;;21.11;83.14
47811;BME280;33575;52.600;7.318;2023-06-22T06:55:37;101715.70;;;21.07;82.95
47811;BME280;33575;52.600;7.318;2023-06-22T06:58:07;101718.88;;;21.16;82.46
47811;BME280;33575;52.600;7.318;2023-06-22T07:00:37;101715.98;;;21.28;82.83
47811;BME280;33575;52.600;7.318;2023-06-22T07:03:08;101712.06;;;21.40;82.17
47811;BME280;33575;52.600;7.318;2023-06-22T07:05:38;101706.76;;;21.36;82.30
47811;BME280;33575;52.600;7.318;2023-06-22T07:08:09;101705.40;;;21.46;81.83
47811;BME280;33575;52.600;7.318;2023-06-22T07:10:39;101708.94;;;21.51;81.37
47811;BME280;33575;52.600;7.318;2023-06-22T07:13:10;101710.98;;;21.60;81.17
47811;BME280;33575;52.600;7.318;2023-06-22T07:15:40;101710.40;;;21.65;80.48
47811;BME280;33575;52.600;7.318;2023-06-22T07:18:10;101709.14;;;21.71;82.19
47811;BME280;33575;52.600;7.318;2023-06-22T07:20:40;101710.71;;;21.84;81.88
47811;BME280;33575;52.600;7.318;2023-06-22T07:23:10;101708.17;;;21.95;81.73
47811;BME280;33575;52.600;7.318;2023-06-22T07:25:41;101698.75;;;21.95;80.60
47811;BME280;33575;52.600;7.318;2023-06-22T07:28:11;101700.38;;;22.08;78.98
47811;BME280;33575;52.600;7.318;2023-06-22T07:30:42;101696.16;;;22.16;79.26
47811;BME280;33575;52.600;7.318;2023-06-22T07:33:12;101699.16;;;22.22;79.68
47811;BME280;33575;52.600;7.318;2023-06-22T07:35:42;101700.98;;;22.31;79.69
47811;BME280;33575;52.600;7.318;2023-06-22T07:38:13;101693.16;;;22.39;80.12
47811;BME280;33575;52.600;7.318;2023-06-22T07:40:43;101690.64;;;22.49;79.80
47811;BME280;33575;52.600;7.318;2023-06-22T07:43:13;101689.02;;;22.54;79.21
47811;BME280;33575;52.600;7.318;2023-06-22T07:45:48;101688.36;;;22.60;77.03
47811;BME280;33575;52.600;7.318;2023-06-22T07:48:14;101685.43;;;22.64;76.88
47811;BME280;33575;52.600;7.318;2023-06-22T07:50:44;101681.60;;;22.75;77.15
47811;BME280;33575;52.600;7.318;2023-06-22T07:53:14;101678.02;;;22.80;75.71
47811;BME280;33575;52.600;7.318;2023-06-22T07:55:45;101673.15;;;22.79;74.94
47811;BME280;33575;52.600;7.318;2023-06-22T07:58:15;101674.75;;;22.83;75.74
47811;BME280;33575;52.600;7.318;2023-06-22T08:00:46;101667.45;;;22.93;76.92
47811;BME280;33575;52.600;7.318;2023-06-22T08:03:16;101670.31;;;22.99;76.50
47811;BME280;33575;52.600;7.318;2023-06-22T08:05:46;101669.16;;;23.04;76.74
47811;BME280;33575;52.600;7.318;2023-06-22T08:08:16;101672.27;;;23.11;76.68
47811;BME280;33575;52.600;7.318;2023-06-22T08:10:46;101665.64;;;23.12;76.91
47811;BME280;33575;52.600;7.318;2023-06-22T08:13:16;101664.22;;;23.14;77.28
47811;BME280;33575;52.600;7.318;2023-06-22T08:15:49;101663.03;;;23.23;77.67
47811;BME280;33575;52.600;7.318;2023-06-22T08:18:17;101664.19;;;23.32;77.87
47811;BME280;33575;52.600;7.318;2023-06-22T08:20:48;101665.75;;;23.42;76.51
47811;BME280;33575;52.600;7.318;2023-06-22T08:23:18;101664.02;;;23.47;76.14
47811;BME280;33575;52.600;7.318;2023-06-22T08:25:48;101661.83;;;23.54;75.86
47811;BME280;33575;52.600;7.318;2023-06-22T08:28:19;101660.32;;;23.59;75.12
47811;BME280;33575;52.600;7.318;2023-06-22T08:30:50;101665.11;;;23.58;75.05
47811;BME280;33575;52.600;7.318;2023-06-22T08:33:25;101662.97;;;23.68;75.66
47811;BME280;33575;52.600;7.318;2023-06-22T08:35:50;101661.03;;;23.76;74.85
47811;BME280;33575;52.600;7.318;2023-06-22T08:38:20;101660.69;;;23.85;75.51
47811;BME280;33575;52.600;7.318;2023-06-22T08:40:50;101655.00;;;24.01;75.22
47811;BME280;33575;52.600;7.318;2023-06-22T08:43:20;101651.83;;;24.15;74.04
47811;BME280;33575;52.600;7.318;2023-06-22T08:45:51;101648.02;;;24.27;74.09
47811;BME280;33575;52.600;7.318;2023-06-22T08:48:21;101648.27;;;24.51;74.97
47811;BME280;33575;52.600;7.318;2023-06-22T08:50:52;101644.00;;;24.61;74.09
47811;BME280;33575;52.600;7.318;2023-06-22T08:53:22;101644.32;;;24.68;73.70
47811;BME280;33575;52.600;7.318;2023-06-22T08:55:53;101644.93;;;24.68;71.64
47811;BME280;33575;52.600;7.318;2023-06-22T08:58:23;101640.55;;;24.81;72.30
47811;BME280;33575;52.600;7.318;2023-06-22T09:00:53;101633.50;;;24.90;72.22
47811;BME280;33575;52.600;7.318;2023-06-22T09:03:24;101629.19;;;24.91;71.14
47811;BME280;33575;52.600;7.318;2023-06-22T09:05:54;101621.68;;;24.94;71.71
47811;BME280;33575;52.600;7.318;2023-06-22T09:08:24;101611.84;;;25.05;71.63
47811;BME280;33575;52.600;7.318;2023-06-22T09:10:54;101608.31;;;25.19;71.60
47811;BME280;33575;52.600;7.318;2023-06-22T09:13:24;101604.36;;;25.19;69.34
47811;BME280;33575;52.600;7.318;2023-06-22T09:15:54;101601.82;;;25.27;69.81
47811;BME280;33575;52.600;7.318;2023-06-22T09:18:24;101600.71;;;25.30;68.27
47811;BME280;33575;52.600;7.318;2023-06-22T09:20:54;101595.10;;;25.27;67.99
47811;BME280;33575;52.600;7.318;2023-06-22T09:23:25;101596.55;;;25.38;69.29
47811;BME280;33575;52.600;7.318;2023-06-22T09:25:55;101589.04;;;25.48;70.26
47811;BME280;33575;52.600;7.318;2023-06-22T09:28:25;101583.95;;;25.58;68.87
47811;BME280;33575;52.600;7.318;2023-06-22T09:30:56;101584.62;;;25.55;67.45
47811;BME280;33575;52.600;7.318;2023-06-22T09:33:27;101579.28;;;25.46;67.56
47811;BME280;33575;52.600;7.318;2023-06-22T09:35:57;101576.48;;;25.51;67.48
47811;BME280;33575;52.600;7.318;2023-06-22T09:38:27;101572.37;;;25.65;67.88
47811;BME280;33575;52.600;7.318;2023-06-22T09:40:58;101574.82;;;25.70;68.01
47811;BME280;33575;52.600;7.318;2023-06-22T09:43:29;101574.07;;;25.71;67.82
47811;BME280;33575;52.600;7.318;2023-06-22T09:45:59;101573.68;;;25.66;66.55
47811;BME280;33575;52.600;7.318;2023-06-22T09:48:29;101576.54;;;25.67;67.05
47811;BME280;33575;52.600;7.318;2023-06-22T09:51:00;101577.71;;;25.68;66.41
47811;BME280;33575;52.600;7.318;2023-06-22T09:53:30;101574.94;;;25.76;67.68
47811;BME280;33575;52.600;7.318;2023-06-22T09:56:00;101574.42;;;25.78;67.98
47811;BME280;33575;52.600;7.318;2023-06-22T09:58:30;101579.23;;;25.68;67.04
47811;BME280;33575;52.600;7.318;2023-06-22T10:01:00;101581.94;;;25.67;67.94
47811;BME280;33575;52.600;7.318;2023-06-22T10:03:31;101588.48;;;25.65;67.37
47811;BME280;33575;52.600;7.318;2023-06-22T10:06:02;101584.54;;;25.50;66.92
47811;BME280;33575;52.600;7.318;2023-06-22T10:08:33;101589.11;;;25.50;67.97
47811;BME280;33575;52.600;7.318;2023-06-22T10:11:02;101588.95;;;25.49;68.41
47811;BME280;33575;52.600;7.318;2023-06-22T10:13:32;101588.91;;;25.52;68.51
47811;BME280;33575;52.600;7.318;2023-06-22T10:16:03;101583.68;;;25.51;67.77
47811;BME280;33575;52.600;7.318;2023-06-22T10:18:33;101579.82;;;25.43;68.03
47811;BME280;33575;52.600;7.318;2023-06-22T10:21:03;101578.28;;;25.30;68.69
47811;BME280;33575;52.600;7.318;2023-06-22T10:23:34;101570.78;;;25.40;68.53
47811;BME280;33575;52.600;7.318;2023-06-22T10:26:05;101567.44;;;25.35;68.52
47811;BME280;33575;52.600;7.318;2023-06-22T10:28:35;101566.16;;;25.52;68.78
47811;BME280;33575;52.600;7.318;2023-06-22T10:31:06;101558.49;;;25.55;68.29
47811;BME280;33575;52.600;7.318;2023-06-22T10:33:36;101559.55;;;25.51;68.40
47811;BME280;33575;52.600;7.318;2023-06-22T10:36:06;101557.07;;;25.57;68.52
47811;BME280;33575;52.600;7.318;2023-06-22T10:38:37;101556.25;;;25.65;68.46
47811;BME280;33575;52.600;7.318;2023-06-22T10:41:07;101553.51;;;25.67;68.58
47811;BME280;33575;52.600;7.318;2023-06-22T10:43:37;101552.83;;;25.63;67.59
47811;BME280;33575;52.600;7.318;2023-06-22T10:46:07;101553.98;;;25.68;67.75
47811;BME280;33575;52.600;7.318;2023-06-22T10:48:37;101552.59;;;25.68;67.38
47811;BME280;33575;52.600;7.318;2023-06-22T10:51:07;101546.62;;;25.66;67.22
47811;BME280;33575;52.600;7.318;2023-06-22T10:53:38;101546.22;;;25.67;67.91
47811;BME280;33575;52.600;7.318;2023-06-22T10:56:09;101543.50;;;25.69;67.86
47811;BME280;33575;52.600;7.318;2023-06-22T10:58:39;101537.08;;;25.56;68.23
47811;BME280;33575;52.600;7.318;2023-06-22T11:01:14;101540.25;;;25.61;67.93
47811;BME280;33575;52.600;7.318;2023-06-22T11:03:40;101545.27;;;25.69;68.18
47811;BME280;33575;52.600;7.318;2023-06-22T11:06:10;101548.87;;;25.73;68.58
47811;BME280;33575;52.600;7.318;2023-06-22T11:08:44;101550.73;;;25.73;67.75
47811;BME280;33575;52.600;7.318;2023-06-22T11:11:10;101552.06;;;25.70;67.05
47811;BME280;33575;52.600;7.318;2023-06-22T11:13:41;101551.61;;;25.64;67.16
47811;BME280;33575;52.600;7.318;2023-06-22T11:16:11;101549.41;;;25.61;67.76
47811;BME280;33575;52.600;7.318;2023-06-22T11:18:42;101548.64;;;25.65;67.94
47811;BME280;33575;52.600;7.318;2023-06-22T11:21:12;101546.82;;;25.54;67.44
47811;BME280;33575;52.600;7.318;2023-06-22T11:23:43;101543.03;;;25.63;67.58
47811;BME280;33575;52.600;7.318;2023-06-22T11:26:14;101537.99;;;25.47;67.76
47811;BME280;33575;52.600;7.318;2023-06-22T11:28:44;101535.45;;;25.52;68.49
47811;BME280;33575;52.600;7.318;2023-06-22T11:31:19;101537.58;;;25.55;68.40
47811;BME280;33575;52.600;7.318;2023-06-22T11:33:45;101536.30;;;25.56;68.32
47811;BME280;33575;52.600;7.318;2023-06-22T11:36:15;101536.93;;;25.45;68.02
47811;BME280;33575;52.600;7.318;2023-06-22T11:38:45;101535.32;;;25.55;68.65
47811;BME280;33575;52.600;7.318;2023-06-22T11:41:16;101530.40;;;25.55;67.76
47811;BME280;33575;52.600;7.318;2023-06-22T11:43:46;101526.50;;;25.51;67.56
47811;BME280;33575;52.600;7.318;2023-06-22T11:46:17;101521.08;;;25.49;68.06
47811;BME280;33575;52.600;7.318;2023-06-22T11:48:47;101513.53;;;25.48;68.38
47811;BME280;33575;52.600;7.318;2023-06-22T11:51:17;101508.30;;;25.36;68.77
47811;BME280;33575;52.600;7.318;2023-06-22T11:53:48;101509.14;;;25.44;68.88
47811;BME280;33575;52.600;7.318;2023-06-22T11:56:19;101505.34;;;25.51;68.64
47811;BME280;33575;52.600;7.318;2023-06-22T11:58:49;101499.81;;;25.44;68.80
47811;BME280;33575;52.600;7.318;2023-06-22T12:01:19;101493.66;;;25.58;68.72
47811;BME280;33575;52.600;7.318;2023-06-22T12:03:50;101493.33;;;25.56;68.91
47811;BME280;33575;52.600;7.318;2023-06-22T12:06:20;101489.68;;;25.53;69.76
47811;BME280;33575;52.600;7.318;2023-06-22T12:08:50;101484.50;;;25.47;68.64
47811;BME280;33575;52.600;7.318;2023-06-22T12:11:20;101481.18;;;25.39;69.75
47811;BME280;33575;52.600;7.318;2023-06-22T12:13:50;101480.13;;;25.35;69.72
47811;BME280;33575;52.600;7.318;2023-06-22T12:16:21;101466.35;;;25.25;70.26
47811;BME280;33575;52.600;7.318;2023-06-22T12:18:51;101462.43;;;25.16;70.39
47811;BME280;33575;52.600;7.318;2023-06-22T12:21:22;101458.56;;;25.15;69.86
47811;BME280;33575;52.600;7.318;2023-06-22T12:23:52;101455.89;;;25.08;70.16
47811;BME280;33575;52.600;7.318;2023-06-22T12:26:23;101454.34;;;25.00;70.51
47811;BME280;33575;52.600;7.318;2023-06-22T12:28:53;101449.45;;;25.02;70.37
47811;BME280;33575;52.600;7.318;2023-06-22T12:31:24;101447.09;;;25.06;71.14
47811;BME280;33575;52.600;7.318;2023-06-22T12:33:54;101449.73;;;25.05;70.66
47811;BME280;33575;52.600;7.318;2023-06-22T12:36:25;101454.72;;;25.05;70.30
47811;BME280;33575;52.600;7.318;2023-06-22T12:38:57;101455.50;;;25.06;70.77
47811;BME280;33575;52.600;7.318;2023-06-22T12:41:25;101452.93;;;25.07;70.99
47811;BME280;33575;52.600;7.318;2023-06-22T12:43:56;101455.06;;;25.02;71.05
47811;BME280;33575;52.600;7.318;2023-06-22T12:46:26;101452.09;;;25.16;70.58
47811;BME280;33575;52.600;7.318;2023-06-22T12:48:56;101449.40;;;25.20;70.57
47811;BME280;33575;52.600;7.318;2023-06-22T12:51:26;101450.97;;;25.09;70.23
47811;BME280;33575;52.600;7.318;2023-06-22T12:53:57;101449.36;;;25.05;70.76
47811;BME280;33575;52.600;7.318;2023-06-22T12:56:27;101452.44;;;25.03;71.18
47811;BME280;33575;52.600;7.318;2023-06-22T12:58:58;101451.81;;;25.01;70.69
47811;BME280;33575;52.600;7.318;2023-06-22T13:01:28;101449.16;;;25.07;70.48
47811;BME280;33575;52.600;7.318;2023-06-22T13:03:58;101446.92;;;25.12;70.31
47811;BME280;33575;52.600;7.318;2023-06-22T13:06:29;101447.71;;;25.18;70.53